sensor_id;sensor_type;location;lat;lon;timestamp;temperature;humidity
32753;DHT22;19121;52.428;10.816;2024-03-02T00:01:06;19.60;43.40
32753;DHT22;19121;52.428;10.816;2024-03-02T00:03:32;19.60;43.40
32753;DHT22;19121;52.428;10.816;2024-03-02T00:05:58;19.60;43.40
32753;DHT22;19121;52.428;10.816;2024-03-02T00:08:24;19.70;43.50
32753;DHT22;19121;52.428;10.816;2024-03-02T00:10:51;19.60;43.50
32753;DHT22;19121;52.428;10.816;2024-03-02T00:13:16;19.60;43.40
32753;DHT22;19121;52.428;10.816;2024-03-02T00:18:17;19.60;43.50
32753;DHT22;19121;52.428;10.816;2024-03-02T00:20:43;19.60;43.50
32753;DHT22;19121;52.428;10.816;2024-03-02T00:23:09;19.60;43.50
32753;DHT22;19121;52.428;10.816;2024-03-02T00:25:43;19.60;43.50
32753;DHT22;19121;52.428;10.816;2024-03-02T00:28:16;19.60;43.50
32753;DHT22;19121;52.428;10.816;2024-03-02T00:33:30;19.60;43.50
32753;DHT22;19121;52.428;10.816;2024-03-02T00:35:56;19.60;43.50
32753;DHT22;19121;52.428;10.816;2024-03-02T00:38:21;19.50;43.50
32753;DHT22;19121;52.428;10.816;2024-03-02T00:40:47;19.50;43.50
32753;DHT22;19121;52.428;10.816;2024-03-02T00:45:57;19.50;43.50
32753;DHT22;19121;52.428;10.816;2024-03-02T00:48:22;19.60;43.50
32753;DHT22;19121;52.428;10.816;2024-03-02T00:50:50;19.50;43.50
32753;DHT22;19121;52.428;10.816;2024-03-02T00:53:17;19.50;43.50
32753;DHT22;19121;52.428;10.816;2024-03-02T00:55:43;19.50;43.50
32753;DHT22;19121;52.428;10.816;2024-03-02T00:58:12;19.50;43.50
32753;DHT22;19121;52.428;10.816;2024-03-02T01:00:38;19.50;43.50
32753;DHT22;19121;52.428;10.816;2024-03-02T01:03:03;19.40;43.50
32753;DHT22;19121;52.428;10.816;2024-03-02T01:05:29;19.50;43.50
32753;DHT22;19121;52.428;10.816;2024-03-02T01:07:54;19.50;44.20
32753;DHT22;19121;52.428;10.816;2024-03-02T01:10:20;19.50;43.60
32753;DHT22;19121;52.428;10.816;2024-03-02T01:12:45;19.50;43.60
32753;DHT22;19121;52.428;10.816;2024-03-02T01:15:11;19.50;43.60
32753;DHT22;19121;52.428;10.816;2024-03-02T01:17:36;19.50;43.60
32753;DHT22;19121;52.428;10.816;2024-03-02T01:20:02;19.40;43.50
32753;DHT22;19121;52.428;10.816;2024-03-02T01:22:28;19.50;43.60
32753;DHT22;19121;52.428;10.816;2024-03-02T01:24:53;19.50;43.60
32753;DHT22;19121;52.428;10.816;2024-03-02T01:27:18;19.40;43.50
32753;DHT22;19121;52.428;10.816;2024-03-02T01:29:44;19.40;43.50
32753;DHT22;19121;52.428;10.816;2024-03-02T01:32:09;19.40;43.50
32753;DHT22;19121;52.428;10.816;2024-03-02T01:34:35;19.40;43.50
32753;DHT22;19121;52.428;10.816;2024-03-02T01:37:00;19.40;43.50
32753;DHT22;19121;52.428;10.816;2024-03-02T01:39:26;19.40;43.50
32753;DHT22;19121;52.428;10.816;2024-03-02T01:41:51;19.40;43.50
32753;DHT22;19121;52.428;10.816;2024-03-02T01:44:16;19.40;43.60
32753;DHT22;19121;52.428;10.816;2024-03-02T01:46:42;19.40;43.60
32753;DHT22;19121;52.428;10.816;2024-03-02T01:49:07;19.40;43.60
32753;DHT22;19121;52.428;10.816;2024-03-02T01:51:33;19.40;43.60
32753;DHT22;19121;52.428;10.816;2024-03-02T01:53:59;19.40;43.60
32753;DHT22;19121;52.428;10.816;2024-03-02T01:56:24;19.40;43.60
32753;DHT22;19121;52.428;10.816;2024-03-02T01:58:50;19.40;43.60
32753;DHT22;19121;52.428;10.816;2024-03-02T02:01:15;19.40;43.60
32753;DHT22;19121;52.428;10.816;2024-03-02T02:03:42;19.30;43.60
32753;DHT22;19121;52.428;10.816;2024-03-02T02:06:08;19.40;43.60
32753;DHT22;19121;52.428;10.816;2024-03-02T02:08:34;19.40;43.70
32753;DHT22;19121;52.428;10.816;2024-03-02T02:10:59;19.40;43.70
32753;DHT22;19121;52.428;10.816;2024-03-02T02:13:24;19.40;43.70
32753;DHT22;19121;52.428;10.816;2024-03-02T02:15:50;19.40;43.70
32753;DHT22;19121;52.428;10.816;2024-03-02T02:18:16;19.40;43.70
32753;DHT22;19121;52.428;10.816;2024-03-02T02:20:41;19.30;43.60
32753;DHT22;19121;52.428;10.816;2024-03-02T02:23:06;19.40;43.70
32753;DHT22;19121;52.428;10.816;2024-03-02T02:25:34;19.30;43.60
32753;DHT22;19121;52.428;10.816;2024-03-02T02:28:00;19.30;43.60
32753;DHT22;19121;52.428;10.816;2024-03-02T02:30:26;19.30;43.60
32753;DHT22;19121;52.428;10.816;2024-03-02T02:32:52;19.30;43.60
32753;DHT22;19121;52.428;10.816;2024-03-02T02:35:18;19.30;43.60
32753;DHT22;19121;52.428;10.816;2024-03-02T02:37:44;19.30;43.60
32753;DHT22;19121;52.428;10.816;2024-03-02T02:40:10;19.30;43.60
32753;DHT22;19121;52.428;10.816;2024-03-02T02:42:36;19.30;43.60
32753;DHT22;19121;52.428;10.816;2024-03-02T02:45:02;19.30;44.00
32753;DHT22;19121;52.428;10.816;2024-03-02T02:47:27;19.30;43.60
32753;DHT22;19121;52.428;10.816;2024-03-02T02:49:55;19.30;43.70
32753;DHT22;19121;52.428;10.816;2024-03-02T02:52:20;19.30;43.70
32753;DHT22;19121;52.428;10.816;2024-03-02T02:54:46;19.30;43.70
32753;DHT22;19121;52.428;10.816;2024-03-02T02:57:12;19.30;43.70
32753;DHT22;19121;52.428;10.816;2024-03-02T02:59:37;19.30;43.70
32753;DHT22;19121;52.428;10.816;2024-03-02T03:02:02;19.30;43.70
32753;DHT22;19121;52.428;10.816;2024-03-02T03:04:28;19.30;43.70
32753;DHT22;19121;52.428;10.816;2024-03-02T03:06:53;19.30;43.70
32753;DHT22;19121;52.428;10.816;2024-03-02T03:09:19;19.30;43.70
32753;DHT22;19121;52.428;10.816;2024-03-02T03:11:44;19.20;43.70
32753;DHT22;19121;52.428;10.816;2024-03-02T03:14:10;19.20;43.70
32753;DHT22;19121;52.428;10.816;2024-03-02T03:16:35;19.20;43.70
32753;DHT22;19121;52.428;10.816;2024-03-02T03:19:01;19.20;43.70
32753;DHT22;19121;52.428;10.816;2024-03-02T03:21:26;19.20;43.70
32753;DHT22;19121;52.428;10.816;2024-03-02T03:23:51;19.20;43.70
32753;DHT22;19121;52.428;10.816;2024-03-02T03:26:17;19.20;43.70
32753;DHT22;19121;52.428;10.816;2024-03-02T03:28:42;19.20;43.70
32753;DHT22;19121;52.428;10.816;2024-03-02T03:31:08;19.20;43.70
32753;DHT22;19121;52.428;10.816;2024-03-02T03:33:33;19.20;43.70
32753;DHT22;19121;52.428;10.816;2024-03-02T03:35:59;19.20;43.70
32753;DHT22;19121;52.428;10.816;2024-03-02T03:38:25;19.20;43.70
32753;DHT22;19121;52.428;10.816;2024-03-02T03:40:50;19.20;43.70
32753;DHT22;19121;52.428;10.816;2024-03-02T03:43:16;19.20;43.70
32753;DHT22;19121;52.428;10.816;2024-03-02T03:45:41;19.20;43.70
32753;DHT22;19121;52.428;10.816;2024-03-02T03:48:07;19.20;43.70
32753;DHT22;19121;52.428;10.816;2024-03-02T03:50:32;19.20;43.70
32753;DHT22;19121;52.428;10.816;2024-03-02T03:52:58;19.20;43.70
32753;DHT22;19121;52.428;10.816;2024-03-02T03:55:24;19.20;43.70
32753;DHT22;19121;52.428;10.816;2024-03-02T03:57:49;19.20;43.70
32753;DHT22;19121;52.428;10.816;2024-03-02T04:00:15;19.20;43.70
32753;DHT22;19121;52.428;10.816;2024-03-02T04:02:41;19.20;43.70
32753;DHT22;19121;52.428;10.816;2024-03-02T04:05:06;19.20;43.70
32753;DHT22;19121;52.428;10.816;2024-03-02T04:07:37;19.10;43.70
32753;DHT22;19121;52.428;10.816;2024-03-02T04:10:09;19.20;43.70
32753;DHT22;19121;52.428;10.816;2024-03-02T04:12:35;19.20;43.80
32753;DHT22;19121;52.428;10.816;2024-03-02T04:15:02;19.10;43.70
32753;DHT22;19121;52.428;10.816;2024-03-02T04:17:27;19.20;43.70
32753;DHT22;19121;52.428;10.816;2024-03-02T04:19:53;19.20;43.80
32753;DHT22;19121;52.428;10.816;2024-03-02T04:22:18;19.10;43.70
32753;DHT22;19121;52.428;10.816;2024-03-02T04:24:44;19.20;43.70
32753;DHT22;19121;52.428;10.816;2024-03-02T04:27:09;19.10;43.70
32753;DHT22;19121;52.428;10.816;2024-03-02T04:29:34;19.10;43.70
32753;DHT22;19121;52.428;10.816;2024-03-02T04:32:00;19.10;43.70
32753;DHT22;19121;52.428;10.816;2024-03-02T04:34:25;19.10;43.70
32753;DHT22;19121;52.428;10.816;2024-03-02T04:36:51;19.10;43.70
32753;DHT22;19121;52.428;10.816;2024-03-02T04:39:16;19.10;43.70
32753;DHT22;19121;52.428;10.816;2024-03-02T04:41:42;19.10;43.70
32753;DHT22;19121;52.428;10.816;2024-03-02T04:44:07;19.10;43.70
32753;DHT22;19121;52.428;10.816;2024-03-02T04:46:33;19.10;43.70
32753;DHT22;19121;52.428;10.816;2024-03-02T04:48:58;19.10;43.70
32753;DHT22;19121;52.428;10.816;2024-03-02T04:51:24;19.10;43.70
32753;DHT22;19121;52.428;10.816;2024-03-02T04:53:49;19.10;43.70
32753;DHT22;19121;52.428;10.816;2024-03-02T04:56:15;19.10;43.70
32753;DHT22;19121;52.428;10.816;2024-03-02T04:58:59;19.10;43.70
32753;DHT22;19121;52.428;10.816;2024-03-02T05:01:24;19.10;43.70
32753;DHT22;19121;52.428;10.816;2024-03-02T05:03:50;19.10;43.70
32753;DHT22;19121;52.428;10.816;2024-03-02T05:06:15;19.10;43.70
32753;DHT22;19121;52.428;10.816;2024-03-02T05:08:40;19.10;43.70
32753;DHT22;19121;52.428;10.816;2024-03-02T05:11:06;19.10;43.70
32753;DHT22;19121;52.428;10.816;2024-03-02T05:13:50;19.10;43.70
32753;DHT22;19121;52.428;10.816;2024-03-02T05:16:15;19.10;43.80
32753;DHT22;19121;52.428;10.816;2024-03-02T05:18:41;19.10;43.80
32753;DHT22;19121;52.428;10.816;2024-03-02T05:21:06;19.10;43.80
32753;DHT22;19121;52.428;10.816;2024-03-02T05:23:32;19.10;43.80
32753;DHT22;19121;52.428;10.816;2024-03-02T05:25:57;19.00;43.70
32753;DHT22;19121;52.428;10.816;2024-03-02T05:28:22;19.10;43.80
32753;DHT22;19121;52.428;10.816;2024-03-02T05:30:48;19.10;43.80
32753;DHT22;19121;52.428;10.816;2024-03-02T05:33:14;19.10;44.40
32753;DHT22;19121;52.428;10.816;2024-03-02T05:35:40;19.00;43.80
32753;DHT22;19121;52.428;10.816;2024-03-02T05:38:05;19.10;43.80
32753;DHT22;19121;52.428;10.816;2024-03-02T05:40:31;19.10;43.80
32753;DHT22;19121;52.428;10.816;2024-03-02T05:42:56;19.10;43.80
32753;DHT22;19121;52.428;10.816;2024-03-02T05:45:21;19.00;43.80
32753;DHT22;19121;52.428;10.816;2024-03-02T05:47:47;19.00;43.80
32753;DHT22;19121;52.428;10.816;2024-03-02T05:50:12;19.00;43.80
32753;DHT22;19121;52.428;10.816;2024-03-02T05:52:38;19.00;43.80
32753;DHT22;19121;52.428;10.816;2024-03-02T05:55:04;19.00;43.80
32753;DHT22;19121;52.428;10.816;2024-03-02T05:57:30;19.00;43.90
32753;DHT22;19121;52.428;10.816;2024-03-02T06:00:18;19.00;43.80
32753;DHT22;19121;52.428;10.816;2024-03-02T06:02:43;19.00;43.90
32753;DHT22;19121;52.428;10.816;2024-03-02T06:05:09;19.00;43.90
32753;DHT22;19121;52.428;10.816;2024-03-02T06:07:35;19.00;43.80
32753;DHT22;19121;52.428;10.816;2024-03-02T06:10:00;19.00;43.80
32753;DHT22;19121;52.428;10.816;2024-03-02T06:12:25;19.00;43.70
32753;DHT22;19121;52.428;10.816;2024-03-02T06:14:51;19.00;43.60
32753;DHT22;19121;52.428;10.816;2024-03-02T06:17:16;19.10;43.70
32753;DHT22;19121;52.428;10.816;2024-03-02T06:19:42;19.10;43.60
32753;DHT22;19121;52.428;10.816;2024-03-02T06:22:07;19.10;43.60
32753;DHT22;19121;52.428;10.816;2024-03-02T06:24:36;19.10;43.50
32753;DHT22;19121;52.428;10.816;2024-03-02T06:27:01;19.20;43.50
32753;DHT22;19121;52.428;10.816;2024-03-02T06:29:27;19.20;43.40
32753;DHT22;19121;52.428;10.816;2024-03-02T06:31:52;19.20;43.40
32753;DHT22;19121;52.428;10.816;2024-03-02T06:34:17;19.20;43.40
32753;DHT22;19121;52.428;10.816;2024-03-02T06:36:43;19.30;43.40
32753;DHT22;19121;52.428;10.816;2024-03-02T06:39:08;19.30;43.30
32753;DHT22;19121;52.428;10.816;2024-03-02T06:41:34;19.30;43.30
32753;DHT22;19121;52.428;10.816;2024-03-02T06:43:59;19.30;43.20
32753;DHT22;19121;52.428;10.816;2024-03-02T06:46:25;19.30;43.20
32753;DHT22;19121;52.428;10.816;2024-03-02T06:48:50;19.30;43.30
32753;DHT22;19121;52.428;10.816;2024-03-02T06:51:16;19.30;43.20
32753;DHT22;19121;52.428;10.816;2024-03-02T06:53:41;19.40;43.30
32753;DHT22;19121;52.428;10.816;2024-03-02T06:56:07;19.40;43.20
32753;DHT22;19121;52.428;10.816;2024-03-02T06:58:33;19.30;43.20
32753;DHT22;19121;52.428;10.816;2024-03-02T07:00:58;19.40;43.20
32753;DHT22;19121;52.428;10.816;2024-03-02T07:03:25;19.40;43.20
32753;DHT22;19121;52.428;10.816;2024-03-02T07:05:51;19.40;43.20
32753;DHT22;19121;52.428;10.816;2024-03-02T07:08:16;19.40;43.20
32753;DHT22;19121;52.428;10.816;2024-03-02T07:10:42;19.40;43.20
32753;DHT22;19121;52.428;10.816;2024-03-02T07:13:07;19.40;43.20
32753;DHT22;19121;52.428;10.816;2024-03-02T07:15:33;19.40;43.20
32753;DHT22;19121;52.428;10.816;2024-03-02T07:18:17;19.40;43.20
32753;DHT22;19121;52.428;10.816;2024-03-02T07:20:42;19.40;43.20
32753;DHT22;19121;52.428;10.816;2024-03-02T07:23:08;19.40;43.10
32753;DHT22;19121;52.428;10.816;2024-03-02T07:25:34;19.40;43.10
32753;DHT22;19121;52.428;10.816;2024-03-02T07:27:59;19.40;43.10
32753;DHT22;19121;52.428;10.816;2024-03-02T07:30:25;19.50;43.20
32753;DHT22;19121;52.428;10.816;2024-03-02T07:32:50;19.50;43.20
32753;DHT22;19121;52.428;10.816;2024-03-02T07:35:16;19.50;43.20
32753;DHT22;19121;52.428;10.816;2024-03-02T07:37:42;19.50;43.20
32753;DHT22;19121;52.428;10.816;2024-03-02T07:40:08;19.50;43.10
32753;DHT22;19121;52.428;10.816;2024-03-02T07:42:39;19.50;43.10
32753;DHT22;19121;52.428;10.816;2024-03-02T07:45:05;19.50;43.10
32753;DHT22;19121;52.428;10.816;2024-03-02T07:47:32;19.50;43.10
32753;DHT22;19121;52.428;10.816;2024-03-02T07:49:57;19.50;43.10
32753;DHT22;19121;52.428;10.816;2024-03-02T07:52:23;19.50;43.10
32753;DHT22;19121;52.428;10.816;2024-03-02T07:54:48;19.50;43.10
32753;DHT22;19121;52.428;10.816;2024-03-02T07:57:14;19.50;43.10
32753;DHT22;19121;52.428;10.816;2024-03-02T07:59:39;19.50;43.10
32753;DHT22;19121;52.428;10.816;2024-03-02T08:02:04;19.50;43.10
32753;DHT22;19121;52.428;10.816;2024-03-02T08:04:30;19.50;43.70
32753;DHT22;19121;52.428;10.816;2024-03-02T08:06:55;19.50;43.10
32753;DHT22;19121;52.428;10.816;2024-03-02T08:09:21;19.60;43.10
32753;DHT22;19121;52.428;10.816;2024-03-02T08:11:46;19.60;43.10
32753;DHT22;19121;52.428;10.816;2024-03-02T08:14:12;19.60;43.10
32753;DHT22;19121;52.428;10.816;2024-03-02T08:16:38;19.60;43.10
32753;DHT22;19121;52.428;10.816;2024-03-02T08:19:03;19.60;43.10
32753;DHT22;19121;52.428;10.816;2024-03-02T08:21:28;19.60;43.10
32753;DHT22;19121;52.428;10.816;2024-03-02T08:24:00;19.60;43.00
32753;DHT22;19121;52.428;10.816;2024-03-02T08:26:25;19.60;43.00
32753;DHT22;19121;52.428;10.816;2024-03-02T08:28:54;19.60;43.00
32753;DHT22;19121;52.428;10.816;2024-03-02T08:31:19;19.60;43.10
32753;DHT22;19121;52.428;10.816;2024-03-02T08:33:45;19.70;43.10
32753;DHT22;19121;52.428;10.816;2024-03-02T08:36:10;19.70;43.10
32753;DHT22;19121;52.428;10.816;2024-03-02T08:38:36;19.70;43.10
32753;DHT22;19121;52.428;10.816;2024-03-02T08:41:01;19.70;43.00
32753;DHT22;19121;52.428;10.816;2024-03-02T08:43:28;19.70;43.00
32753;DHT22;19121;52.428;10.816;2024-03-02T08:45:54;19.70;43.10
32753;DHT22;19121;52.428;10.816;2024-03-02T08:48:19;19.80;43.10
32753;DHT22;19121;52.428;10.816;2024-03-02T08:50:46;19.80;43.10
32753;DHT22;19121;52.428;10.816;2024-03-02T08:53:11;19.80;43.00
32753;DHT22;19121;52.428;10.816;2024-03-02T08:55:37;19.80;43.00
32753;DHT22;19121;52.428;10.816;2024-03-02T08:58:02;19.80;43.00
32753;DHT22;19121;52.428;10.816;2024-03-02T09:00:28;19.80;43.00
32753;DHT22;19121;52.428;10.816;2024-03-02T09:02:54;19.80;43.00
32753;DHT22;19121;52.428;10.816;2024-03-02T09:05:19;19.90;43.00
32753;DHT22;19121;52.428;10.816;2024-03-02T09:07:45;19.90;43.00
32753;DHT22;19121;52.428;10.816;2024-03-02T09:10:10;19.90;43.00
32753;DHT22;19121;52.428;10.816;2024-03-02T09:12:35;19.90;42.90
32753;DHT22;19121;52.428;10.816;2024-03-02T09:15:02;19.90;42.90
32753;DHT22;19121;52.428;10.816;2024-03-02T09:17:31;19.90;42.90
32753;DHT22;19121;52.428;10.816;2024-03-02T09:19:56;20.00;42.90
32753;DHT22;19121;52.428;10.816;2024-03-02T09:22:22;20.00;42.90
32753;DHT22;19121;52.428;10.816;2024-03-02T09:24:48;20.00;42.80
32753;DHT22;19121;52.428;10.816;2024-03-02T09:27:13;20.10;42.80
32753;DHT22;19121;52.428;10.816;2024-03-02T09:29:39;20.10;43.20
32753;DHT22;19121;52.428;10.816;2024-03-02T09:32:05;20.10;42.80
32753;DHT22;19121;52.428;10.816;2024-03-02T09:34:31;20.10;42.80
32753;DHT22;19121;52.428;10.816;2024-03-02T09:36:57;20.10;42.70
32753;DHT22;19121;52.428;10.816;2024-03-02T09:39:22;20.10;42.80
32753;DHT22;19121;52.428;10.816;2024-03-02T09:41:48;20.20;42.90
32753;DHT22;19121;52.428;10.816;2024-03-02T09:44:13;20.20;42.80
32753;DHT22;19121;52.428;10.816;2024-03-02T09:46:39;20.20;42.80
32753;DHT22;19121;52.428;10.816;2024-03-02T09:49:04;20.20;42.80
32753;DHT22;19121;52.428;10.816;2024-03-02T09:51:31;20.20;42.70
32753;DHT22;19121;52.428;10.816;2024-03-02T09:53:56;20.30;42.80
32753;DHT22;19121;52.428;10.816;2024-03-02T09:56:21;20.30;42.80
32753;DHT22;19121;52.428;10.816;2024-03-02T09:58:47;20.30;42.80
32753;DHT22;19121;52.428;10.816;2024-03-02T10:01:12;20.30;42.70
32753;DHT22;19121;52.428;10.816;2024-03-02T10:03:38;20.30;42.70
32753;DHT22;19121;52.428;10.816;2024-03-02T10:06:20;20.30;42.70
32753;DHT22;19121;52.428;10.816;2024-03-02T10:08:45;20.40;42.80
32753;DHT22;19121;52.428;10.816;2024-03-02T10:11:11;20.40;42.80
32753;DHT22;19121;52.428;10.816;2024-03-02T10:13:49;20.40;42.70
32753;DHT22;19121;52.428;10.816;2024-03-02T10:16:14;20.40;42.70
32753;DHT22;19121;52.428;10.816;2024-03-02T10:18:39;20.40;42.80
32753;DHT22;19121;52.428;10.816;2024-03-02T10:21:14;20.40;42.80
32753;DHT22;19121;52.428;10.816;2024-03-02T10:23:40;20.40;42.80
32753;DHT22;19121;52.428;10.816;2024-03-02T10:26:16;20.50;42.80
32753;DHT22;19121;52.428;10.816;2024-03-02T10:28:48;20.50;42.80
32753;DHT22;19121;52.428;10.816;2024-03-02T10:31:13;20.50;42.80
32753;DHT22;19121;52.428;10.816;2024-03-02T10:33:39;20.50;42.90
32753;DHT22;19121;52.428;10.816;2024-03-02T10:36:05;20.50;42.90
32753;DHT22;19121;52.428;10.816;2024-03-02T10:38:33;20.50;42.90
32753;DHT22;19121;52.428;10.816;2024-03-02T10:40:58;20.50;43.00
32753;DHT22;19121;52.428;10.816;2024-03-02T10:43:25;20.50;43.00
32753;DHT22;19121;52.428;10.816;2024-03-02T10:45:51;20.50;43.00
32753;DHT22;19121;52.428;10.816;2024-03-02T10:48:17;20.50;43.00
32753;DHT22;19121;52.428;10.816;2024-03-02T10:50:43;20.50;43.00
32753;DHT22;19121;52.428;10.816;2024-03-02T10:53:08;20.60;43.00
32753;DHT22;19121;52.428;10.816;2024-03-02T10:55:34;20.50;43.10
32753;DHT22;19121;52.428;10.816;2024-03-02T10:58:00;20.60;43.10
32753;DHT22;19121;52.428;10.816;2024-03-02T11:00:27;20.60;43.10
32753;DHT22;19121;52.428;10.816;2024-03-02T11:02:58;20.60;43.10
32753;DHT22;19121;52.428;10.816;2024-03-02T11:05:27;20.60;43.20
32753;DHT22;19121;52.428;10.816;2024-03-02T11:07:56;20.60;43.20
32753;DHT22;19121;52.428;10.816;2024-03-02T11:10:22;20.60;43.10
32753;DHT22;19121;52.428;10.816;2024-03-02T11:12:50;20.60;43.20
32753;DHT22;19121;52.428;10.816;2024-03-02T11:15:17;20.60;43.20
32753;DHT22;19121;52.428;10.816;2024-03-02T11:17:44;20.60;43.20
32753;DHT22;19121;52.428;10.816;2024-03-02T11:20:10;20.60;43.20
32753;DHT22;19121;52.428;10.816;2024-03-02T11:22:36;20.60;43.20
32753;DHT22;19121;52.428;10.816;2024-03-02T11:25:01;20.60;43.20
32753;DHT22;19121;52.428;10.816;2024-03-02T11:30:56;20.60;43.20
32753;DHT22;19121;52.428;10.816;2024-03-02T11:32:56;20.70;43.30
32753;DHT22;19121;52.428;10.816;2024-03-02T11:35:23;20.60;43.20
32753;DHT22;19121;52.428;10.816;2024-03-02T11:37:49;20.60;43.90
32753;DHT22;19121;52.428;10.816;2024-03-02T11:40:14;20.60;43.20
32753;DHT22;19121;52.428;10.816;2024-03-02T11:42:40;20.70;43.30
32753;DHT22;19121;52.428;10.816;2024-03-02T11:45:05;20.70;43.30
32753;DHT22;19121;52.428;10.816;2024-03-02T11:47:33;20.70;43.20
32753;DHT22;19121;52.428;10.816;2024-03-02T11:49:59;20.70;43.30
32753;DHT22;19121;52.428;10.816;2024-03-02T11:52:24;20.70;43.30
32753;DHT22;19121;52.428;10.816;2024-03-02T11:54:51;20.70;43.30
32753;DHT22;19121;52.428;10.816;2024-03-02T11:57:20;20.70;43.30
32753;DHT22;19121;52.428;10.816;2024-03-02T11:59:48;20.70;43.30
32753;DHT22;19121;52.428;10.816;2024-03-02T12:02:21;20.80;43.40
32753;DHT22;19121;52.428;10.816;2024-03-02T12:04:47;20.70;43.30
32753;DHT22;19121;52.428;10.816;2024-03-02T12:07:23;20.80;43.40
32753;DHT22;19121;52.428;10.816;2024-03-02T12:09:49;20.70;43.30
32753;DHT22;19121;52.428;10.816;2024-03-02T12:12:15;20.70;43.30
32753;DHT22;19121;52.428;10.816;2024-03-02T12:14:52;20.80;43.40
32753;DHT22;19121;52.428;10.816;2024-03-02T12:17:20;20.70;43.30
32753;DHT22;19121;52.428;10.816;2024-03-02T12:19:46;20.80;43.40
32753;DHT22;19121;52.428;10.816;2024-03-02T12:22:11;20.80;43.40
32753;DHT22;19121;52.428;10.816;2024-03-02T12:24:37;20.70;43.30
32753;DHT22;19121;52.428;10.816;2024-03-02T12:27:03;20.80;43.40
32753;DHT22;19121;52.428;10.816;2024-03-02T12:29:29;20.80;43.40
32753;DHT22;19121;52.428;10.816;2024-03-02T12:31:54;20.80;43.40
32753;DHT22;19121;52.428;10.816;2024-03-02T12:34:20;20.80;43.30
32753;DHT22;19121;52.428;10.816;2024-03-02T12:36:46;20.80;43.40
32753;DHT22;19121;52.428;10.816;2024-03-02T12:39:18;20.80;43.30
32753;DHT22;19121;52.428;10.816;2024-03-02T12:41:43;20.90;43.40
32753;DHT22;19121;52.428;10.816;2024-03-02T12:44:09;20.80;43.30
32753;DHT22;19121;52.428;10.816;2024-03-02T12:46:34;20.80;43.30
32753;DHT22;19121;52.428;10.816;2024-03-02T12:49:14;20.80;43.30
32753;DHT22;19121;52.428;10.816;2024-03-02T12:51:41;20.80;43.40
32753;DHT22;19121;52.428;10.816;2024-03-02T12:54:10;20.80;43.30
32753;DHT22;19121;52.428;10.816;2024-03-02T12:56:36;20.80;43.40
32753;DHT22;19121;52.428;10.816;2024-03-02T12:59:03;20.90;43.40
32753;DHT22;19121;52.428;10.816;2024-03-02T13:01:28;20.90;43.30
32753;DHT22;19121;52.428;10.816;2024-03-02T13:03:53;20.90;43.30
32753;DHT22;19121;52.428;10.816;2024-03-02T13:06:22;20.90;43.40
32753;DHT22;19121;52.428;10.816;2024-03-02T13:08:48;20.90;43.40
32753;DHT22;19121;52.428;10.816;2024-03-02T13:11:14;20.90;43.40
32753;DHT22;19121;52.428;10.816;2024-03-02T13:13:40;20.90;43.40
32753;DHT22;19121;52.428;10.816;2024-03-02T13:16:09;20.90;43.40
32753;DHT22;19121;52.428;10.816;2024-03-02T13:18:35;20.90;43.30
32753;DHT22;19121;52.428;10.816;2024-03-02T13:21:01;20.90;43.40
32753;DHT22;19121;52.428;10.816;2024-03-02T13:23:26;20.90;43.40
32753;DHT22;19121;52.428;10.816;2024-03-02T13:25:52;20.90;43.40
32753;DHT22;19121;52.428;10.816;2024-03-02T13:28:17;20.90;43.40
32753;DHT22;19121;52.428;10.816;2024-03-02T13:30:43;20.90;43.40
32753;DHT22;19121;52.428;10.816;2024-03-02T13:33:08;21.00;43.40
32753;DHT22;19121;52.428;10.816;2024-03-02T13:35:34;20.90;43.40
32753;DHT22;19121;52.428;10.816;2024-03-02T13:37:59;21.00;43.40
32753;DHT22;19121;52.428;10.816;2024-03-02T13:40:25;21.00;43.40
32753;DHT22;19121;52.428;10.816;2024-03-02T13:42:50;20.90;44.00
32753;DHT22;19121;52.428;10.816;2024-03-02T13:45:17;20.90;43.40
32753;DHT22;19121;52.428;10.816;2024-03-02T13:47:43;20.90;43.50
32753;DHT22;19121;52.428;10.816;2024-03-02T13:50:09;20.90;43.40
32753;DHT22;19121;52.428;10.816;2024-03-02T13:52:34;20.90;43.40
32753;DHT22;19121;52.428;10.816;2024-03-02T13:54:59;21.00;43.40
32753;DHT22;19121;52.428;10.816;2024-03-02T13:57:25;21.00;43.40
32753;DHT22;19121;52.428;10.816;2024-03-02T13:59:50;21.00;43.40
32753;DHT22;19121;52.428;10.816;2024-03-02T14:02:17;21.00;43.40
32753;DHT22;19121;52.428;10.816;2024-03-02T14:04:43;21.00;43.40
32753;DHT22;19121;52.428;10.816;2024-03-02T14:07:08;21.00;43.40
32753;DHT22;19121;52.428;10.816;2024-03-02T14:09:34;21.00;43.40
32753;DHT22;19121;52.428;10.816;2024-03-02T14:11:59;21.00;43.40
32753;DHT22;19121;52.428;10.816;2024-03-02T14:14:28;21.00;43.40
32753;DHT22;19121;52.428;10.816;2024-03-02T14:16:57;21.00;43.40
32753;DHT22;19121;52.428;10.816;2024-03-02T14:19:26;21.00;43.40
32753;DHT22;19121;52.428;10.816;2024-03-02T14:21:51;21.00;43.40
32753;DHT22;19121;52.428;10.816;2024-03-02T14:24:17;21.00;43.40
32753;DHT22;19121;52.428;10.816;2024-03-02T14:26:42;21.00;43.40
32753;DHT22;19121;52.428;10.816;2024-03-02T14:29:07;21.00;43.40
32753;DHT22;19121;52.428;10.816;2024-03-02T14:31:33;21.00;43.40
32753;DHT22;19121;52.428;10.816;2024-03-02T14:33:58;21.00;43.30
32753;DHT22;19121;52.428;10.816;2024-03-02T14:36:25;21.00;43.30
32753;DHT22;19121;52.428;10.816;2024-03-02T14:38:51;21.00;43.40
32753;DHT22;19121;52.428;10.816;2024-03-02T14:41:16;21.00;43.30
32753;DHT22;19121;52.428;10.816;2024-03-02T14:43:42;21.00;43.30
32753;DHT22;19121;52.428;10.816;2024-03-02T14:46:07;21.00;43.30
32753;DHT22;19121;52.428;10.816;2024-03-02T14:48:36;21.00;43.40
32753;DHT22;19121;52.428;10.816;2024-03-02T14:51:01;21.00;43.30
32753;DHT22;19121;52.428;10.816;2024-03-02T14:53:27;21.00;43.30
32753;DHT22;19121;52.428;10.816;2024-03-02T14:55:53;21.00;43.30
32753;DHT22;19121;52.428;10.816;2024-03-02T14:58:19;21.00;43.30
32753;DHT22;19121;52.428;10.816;2024-03-02T15:00:44;21.00;43.30
32753;DHT22;19121;52.428;10.816;2024-03-02T15:03:10;21.00;43.40
32753;DHT22;19121;52.428;10.816;2024-03-02T15:05:37;21.00;43.40
32753;DHT22;19121;52.428;10.816;2024-03-02T15:08:02;21.00;43.40
32753;DHT22;19121;52.428;10.816;2024-03-02T15:10:30;21.00;43.40
32753;DHT22;19121;52.428;10.816;2024-03-02T15:12:55;21.00;43.40
32753;DHT22;19121;52.428;10.816;2024-03-02T15:15:21;21.00;43.40
32753;DHT22;19121;52.428;10.816;2024-03-02T15:17:46;21.00;43.40
32753;DHT22;19121;52.428;10.816;2024-03-02T15:20:12;21.00;43.40